createdAt,value
2023-03-21T00:06:09.239Z,97947.50
2023-03-21T00:16:20.305Z,97946.72
2023-03-21T00:26:27.112Z,97959.56
2023-03-21T00:36:30.718Z,97949.34
2023-03-21T00:46:45.563Z,97944.44
2023-03-21T00:57:00.946Z,97927.66
2023-03-21T01:07:04.369Z,97916.22
2023-03-21T01:17:08.207Z,97915.25
2023-03-21T01:27:11.845Z,97909.34
2023-03-21T01:37:15.357Z,97897.66
2023-03-21T01:47:18.815Z,97902.56
2023-03-21T01:57:43.614Z,97895.41
2023-03-21T02:07:55.229Z,97888.25
2023-03-21T02:18:48.151Z,97883.31
2023-03-21T02:29:22.098Z,97881.09
2023-03-21T02:40:11.405Z,97878.47
2023-03-21T02:50:22.167Z,97869.84
2023-03-21T03:00:30.939Z,97861.25
2023-03-21T03:10:58.049Z,97863.31
2023-03-21T03:21:22.922Z,97863.72
2023-03-21T03:31:32.504Z,97844.63
2023-03-21T03:42:05.865Z,97853.69
2023-03-21T03:52:18.431Z,97845.50
2023-03-21T04:02:22.191Z,97836.69
2023-03-21T04:12:26.082Z,97828.72
2023-03-21T04:22:29.543Z,97842.03
2023-03-21T04:32:34.195Z,97825.25
2023-03-21T04:42:37.828Z,97837.34
2023-03-21T04:52:41.412Z,97836.09
2023-03-21T05:02:45.188Z,97832.81
2023-03-21T05:12:48.951Z,97823.81
2023-03-21T05:22:52.556Z,97832.22
2023-03-21T05:32:56.477Z,97816.22
2023-03-21T05:42:59.836Z,97824.62
2023-03-21T05:53:03.306Z,97816.62
2023-03-21T06:03:07.189Z,97827.25
2023-03-21T06:13:09.830Z,97807.50
2023-03-21T06:23:12.434Z,97811.44
2023-03-21T06:33:15.119Z,97810.94
2023-03-21T06:43:18.519Z,97807.06
2023-03-21T06:53:25.396Z,97813.16
2023-03-21T07:03:28.503Z,97815.84
2023-03-21T07:13:32.264Z,97819.28
2023-03-21T07:23:35.126Z,97815.81
2023-03-21T07:33:37.981Z,97805.19
2023-03-21T07:43:40.894Z,97804.81
2023-03-21T07:53:44.283Z,97807.06
2023-03-21T08:03:48.660Z,97813.37
2023-03-21T08:13:51.970Z,97834.06
2023-03-21T08:23:54.941Z,97836.31
2023-03-21T08:33:57.660Z,97839.03
2023-03-21T08:44:00.313Z,97834.50
2023-03-21T08:54:02.952Z,97843.37
2023-03-21T09:04:08.346Z,97838.88
2023-03-21T09:14:12.241Z,97826.53
2023-03-21T09:24:16.249Z,97823.66
2023-03-21T09:34:19.194Z,97823.72
2023-03-21T09:44:46.744Z,97817.78
2023-03-21T09:54:50.319Z,97827.19
2023-03-21T10:04:53.284Z,97825.03
2023-03-21T10:14:59.332Z,97824.41
2023-03-21T10:25:01.759Z,97817.47
2023-03-21T10:35:05.460Z,97829.91
2023-03-21T10:45:17.450Z,97825.81
2023-03-21T10:55:29.975Z,97805.75
2023-03-21T11:05:42.173Z,97795.69
2023-03-21T11:16:13.298Z,97790.03
2023-03-21T11:26:30.519Z,97789.44
2023-03-21T11:36:38.510Z,97789.69
2023-03-21T11:46:41.730Z,97780.38
2023-03-21T11:56:54.420Z,97759.91
2023-03-21T12:07:12.664Z,97752.37
2023-03-21T12:17:24.890Z,97746.59
2023-03-21T12:27:30.113Z,97734.66
2023-03-21T12:37:41.613Z,97722.84
2023-03-21T12:47:51.848Z,97720.03
2023-03-21T12:58:06.359Z,97707.50
2023-03-21T13:08:17.757Z,97687.06
2023-03-21T13:18:45.073Z,97682.84
2023-03-21T13:28:48.951Z,97674.16
2023-03-21T13:38:54.332Z,97655.28
2023-03-21T13:49:08.626Z,97646.44
2023-03-21T13:59:13.229Z,97643.84
2023-03-21T14:09:34.216Z,97653.16
2023-03-21T14:19:36.958Z,97646.69
2023-03-21T14:29:40.138Z,97642.22
2023-03-21T14:39:43.194Z,97640.94
2023-03-21T14:49:46.422Z,97628.56
2023-03-21T14:59:53.113Z,97639.34
2023-03-21T15:09:58.296Z,97627.28
2023-03-21T15:20:01.555Z,97615.53
2023-03-21T15:30:05.054Z,97613.56
2023-03-21T15:40:21.168Z,97608.13
2023-03-21T15:50:29.800Z,97603.00
2023-03-21T16:00:44.471Z,97619.19
2023-03-21T16:10:49.454Z,97616.78
2023-03-21T16:20:53.913Z,97611.41
2023-03-21T16:30:56.840Z,97608.50
2023-03-21T16:41:01.640Z,97622.63
2023-03-21T16:51:04.560Z,97626.97
2023-03-21T17:01:12.218Z,97620.09
2023-03-21T17:11:18.451Z,97620.88
2023-03-21T17:21:27.622Z,97640.47
2023-03-21T17:31:35.043Z,97653.37
2023-03-21T17:41:38.030Z,97640.28
2023-03-21T17:51:41.856Z,97643.84
2023-03-21T18:01:45.545Z,97644.25
2023-03-21T18:11:48.501Z,97636.66
2023-03-21T18:21:51.807Z,97632.88
2023-03-21T18:32:05.591Z,97637.81
2023-03-21T18:42:16.627Z,97634.53
2023-03-21T18:52:20.201Z,97631.69
2023-03-21T19:02:23.248Z,97626.59
2023-03-21T19:12:27.244Z,97621.25
2023-03-21T19:22:30.659Z,97623.75
2023-03-21T19:32:33.916Z,97632.19
2023-03-21T19:42:37.443Z,97623.53
2023-03-21T19:52:40.143Z,97626.00
2023-03-21T20:02:46.129Z,97618.38
2023-03-21T20:12:49.119Z,97625.13
2023-03-21T20:23:11.118Z,97634.84
2023-03-21T20:33:15.041Z,97638.66
2023-03-21T20:44:06.449Z,97642.16
2023-03-21T20:53:41.113Z,97658.09
2023-03-21T21:03:45.143Z,97663.47
2023-03-21T21:13:47.905Z,97684.56
2023-03-21T21:23:51.453Z,97689.50
2023-03-21T21:33:54.963Z,97694.91
2023-03-21T21:43:57.689Z,97687.06
2023-03-21T21:54:04.306Z,97680.06
2023-03-21T22:04:08.533Z,97682.19
2023-03-21T22:14:11.177Z,97688.38
2023-03-21T22:24:13.657Z,97680.22
2023-03-21T22:34:16.524Z,97681.44
2023-03-21T22:44:19.116Z,97674.75
2023-03-21T22:54:21.969Z,97685.00
2023-03-21T23:04:27.303Z,97678.44
2023-03-21T23:14:29.851Z,97670.00
2023-03-21T23:24:32.405Z,97673.31
2023-03-21T23:34:34.849Z,97678.31
2023-03-21T23:44:37.592Z,97679.16
2023-03-21T23:54:40.048Z,97682.22
